Time;durP1;ratioP1;P1;durP2;ratioP2;P2;SDS_P1;SDS_P2;PMS_P1;PMS_P2;Temp;Humidity;BMP_temperature;BMP_pressure;BME280_temperature;BME280_humidity;BME280_pressure;Samples;Min_cycle;Max_cycle;Signal;HPM_P1;HPM_P2
2022/11/11 00:01:54;;;;;;;17.52;10.40;;;;;;;8.77;77.03;102148.13;4140353;28;20033;-65
2022/11/11 00:04:16;;;;;;;15.80;9.05;;;;;;;8.76;77.21;102142.88;4147738;28;20049;-66
2022/11/11 00:06:39;;;;;;;16.38;9.02;;;;;;;8.79;77.08;102145.63;4147809;28;20512;-64
2022/11/11 00:09:01;;;;;;;16.35;10.27;;;;;;;8.78;77.29;102143.88;4146946;28;20077;-64
2022/11/11 00:11:22;;;;;;;20.30;10.77;;;;;;;8.75;77.33;102139.41;4144517;28;20042;-64
2022/11/11 00:13:44;;;;;;;19.35;10.13;;;;;;;8.73;77.32;102133.25;4147464;28;20049;-65
2022/11/11 00:16:07;;;;;;;18.90;9.57;;;;;;;8.73;77.40;102130.66;4147815;28;20045;-65
2022/11/11 00:26:56;;;;;;;15.00;8.85;;;;;;;8.59;77.92;102126.53;4146964;28;20042;-64
2022/11/11 00:29:19;;;;;;;15.35;8.95;;;;;;;8.58;77.58;102130.78;4143227;28;20527;-64
2022/11/11 00:34:16;;;;;;;14.77;7.97;;;;;;;8.57;77.48;102134.19;4145783;28;20097;-64
2022/11/11 00:36:37;;;;;;;17.52;9.02;;;;;;;8.61;77.35;102135.25;4147613;28;20133;-64
2022/11/11 00:39:06;;;;;;;17.60;9.70;;;;;;;8.56;77.21;102145.41;4147200;28;20049;-64
2022/11/11 00:41:27;;;;;;;14.65;8.20;;;;;;;8.55;76.98;102156.56;4144544;28;20037;-64
2022/11/11 00:43:49;;;;;;;16.15;8.43;;;;;;;8.55;77.00;102156.56;4131477;28;20050;-64
2022/11/11 00:51:29;;;;;;;16.63;10.30;;;;;;;8.42;77.20;102165.38;4146738;28;20133;-65
2022/11/11 00:53:50;;;;;;;16.23;9.07;;;;;;;8.42;77.34;102165.38;4146180;28;20100;-65
2022/11/11 00:56:13;;;;;;;19.17;10.68;;;;;;;8.43;77.39;102166.31;4145252;28;20081;-65
2022/11/11 00:58:35;;;;;;;15.18;10.02;;;;;;;8.41;77.21;102175.69;4148538;28;20052;-65
2022/11/11 01:00:56;;;;;;;18.70;9.75;;;;;;;8.42;77.39;102174.88;4139483;28;20073;-65
2022/11/11 01:03:18;;;;;;;15.93;10.35;;;;;;;8.42;77.01;102177.47;4150144;28;20038;-65
2022/11/11 01:05:39;;;;;;;15.02;10.30;;;;;;;8.43;77.24;102187.03;4150509;28;20491;-64
2022/11/11 01:08:01;;;;;;;22.15;11.00;;;;;;;8.40;77.20;102185.16;4143743;28;20038;-65
2022/11/11 01:10:38;;;;;;;17.98;9.50;;;;;;;8.28;77.47;102182.84;4149067;28;20060;-65
2022/11/11 01:13:11;;;;;;;15.05;10.32;;;;;;;8.23;77.68;102179.13;4150224;28;20038;-65
2022/11/11 01:15:33;;;;;;;18.52;10.32;;;;;;;8.26;77.66;102178.38;4149063;28;20045;-65
2022/11/11 01:17:55;;;;;;;17.35;10.35;;;;;;;8.28;77.36;102181.94;4149187;28;20034;-65
2022/11/11 01:20:17;;;;;;;16.50;10.35;;;;;;;8.23;77.59;102173.06;4150167;28;20052;-65
2022/11/11 01:22:38;;;;;;;17.20;11.52;;;;;;;8.20;77.55;102168.59;4150213;28;20038;-65
2022/11/11 01:25:00;;;;;;;19.88;10.40;;;;;;;8.18;77.54;102167.63;4149812;28;20141;-64
2022/11/11 01:27:21;;;;;;;16.40;11.25;;;;;;;8.17;77.47;102163.25;4147466;28;20049;-64
2022/11/11 01:29:45;;;;;;;19.42;12.05;;;;;;;8.18;77.47;102155.56;4150024;28;20105;-65
2022/11/11 01:32:06;;;;;;;19.95;11.07;;;;;;;8.16;77.05;102161.47;4150005;28;20045;-65
2022/11/11 01:34:28;;;;;;;16.67;11.20;;;;;;;8.15;76.40;102165.78;4148938;28;20038;-65
2022/11/11 01:36:49;;;;;;;17.65;10.10;;;;;;;8.13;76.78;102164.81;4149188;28;20037;-65
2022/11/11 01:39:11;;;;;;;16.17;10.35;;;;;;;8.09;76.65;102174.91;4149649;28;20122;-65
2022/11/11 01:41:35;;;;;;;17.75;10.45;;;;;;;8.09;76.82;102180.09;4162530;28;20037;-65
2022/11/11 01:43:57;;;;;;;20.40;11.43;;;;;;;8.08;76.33;102186.09;4133314;28;20049;-65
2022/11/11 01:46:29;;;;;;;15.18;10.07;;;;;;;8.07;76.41;102181.72;4134462;28;20412;-65
2022/11/11 01:51:41;;;;;;;16.05;10.27;;;;;;;8.03;76.93;102191.00;4148873;28;20048;-65
2022/11/11 01:54:06;;;;;;;18.77;11.27;;;;;;;7.99;76.93;102174.44;4149401;28;20123;-65
2022/11/11 01:56:28;;;;;;;16.88;10.82;;;;;;;7.97;77.09;102172.56;4148664;28;20569;-65
2022/11/11 01:58:51;;;;;;;15.88;10.52;;;;;;;7.96;76.76;102174.28;4156660;28;20391;-65
2022/11/11 02:01:13;;;;;;;17.40;11.27;;;;;;;7.94;77.05;102175.00;4149625;28;20044;-65
2022/11/11 02:03:40;;;;;;;21.13;11.05;;;;;;;7.94;77.09;102175.88;4149249;28;20069;-65
2022/11/11 02:06:00;;;;;;;14.55;9.27;;;;;;;7.85;77.41;102167.63;4149535;28;20046;-65
2022/11/11 02:08:32;;;;;;;14.90;10.48;;;;;;;7.80;77.48;102169.13;4144938;28;20042;-65
2022/11/11 02:10:54;;;;;;;16.15;10.20;;;;;;;7.80;77.22;102172.59;4139762;28;20499;-65
2022/11/11 02:15:55;;;;;;;16.77;8.90;;;;;;;7.78;77.23;102169.03;4133176;28;20137;-65
2022/11/11 02:18:17;;;;;;;14.85;10.00;;;;;;;7.81;77.10;102168.28;4144781;28;20046;-65
2022/11/11 02:20:43;;;;;;;12.73;8.48;;;;;;;7.83;77.03;102174.47;4149254;28;20050;-65
2022/11/11 02:23:09;;;;;;;15.48;9.25;;;;;;;7.85;76.79;102170.22;4149313;28;20034;-65
2022/11/11 02:25:33;;;;;;;14.13;9.18;;;;;;;7.83;76.77;102171.88;4148556;28;20050;-65
2022/11/11 02:27:59;;;;;;;15.45;9.27;;;;;;;7.83;77.18;102174.47;4146734;28;20470;-65
2022/11/11 02:30:21;;;;;;;18.02;9.75;;;;;;;7.82;76.82;102176.13;4149045;28;20042;-65
2022/11/11 02:32:44;;;;;;;14.30;8.93;;;;;;;7.83;76.84;102172.75;4149112;28;20034;-65
2022/11/11 02:35:13;;;;;;;13.00;8.80;;;;;;;7.86;76.62;102172.03;4149203;28;20488;-65
2022/11/11 02:37:34;;;;;;;14.60;10.48;;;;;;;7.88;77.03;102166.94;4148255;28;20049;-65
2022/11/11 02:40:01;;;;;;;13.68;9.48;;;;;;;7.86;77.21;102161.66;4143169;28;20044;-65
2022/11/11 02:42:26;;;;;;;14.52;9.18;;;;;;;7.82;77.10;102168.38;4147396;28;20057;-65
2022/11/11 02:44:48;;;;;;;16.00;9.52;;;;;;;7.81;77.61;102168.28;4142741;28;20042;-65
2022/11/11 02:47:09;;;;;;;16.10;9.45;;;;;;;7.78;77.03;102158.69;4145108;28;20061;-65
2022/11/11 02:49:31;;;;;;;17.65;10.30;;;;;;;7.78;76.87;102162.94;4148711;28;20034;-65
2022/11/11 02:51:52;;;;;;;13.90;8.65;;;;;;;7.76;76.65;102175.81;4132508;28;20046;-65
2022/11/11 02:54:14;;;;;;;18.45;9.98;;;;;;;7.73;76.36;102177.38;4149186;28;20045;-65
2022/11/11 02:59:17;;;;;;;18.27;10.82;;;;;;;7.73;77.14;102185.13;4144062;28;20049;-65
2022/11/11 03:01:38;;;;;;;13.70;8.43;;;;;;;7.72;76.62;102178.16;4132509;28;20043;-65
2022/11/11 03:04:00;;;;;;;14.38;8.85;;;;;;;7.73;77.04;102182.53;4131974;28;20038;-65
2022/11/11 03:06:21;;;;;;;13.43;8.75;;;;;;;7.72;77.29;102185.94;4137691;28;20050;-65
2022/11/11 03:08:43;;;;;;;11.73;7.88;;;;;;;7.73;76.71;102190.31;4148355;28;20095;-65
2022/11/11 03:11:04;;;;;;;17.80;8.93;;;;;;;7.74;76.98;102186.88;4147312;28;20057;-65
2022/11/11 03:13:26;;;;;;;13.60;8.65;;;;;;;7.76;76.70;102193.06;4148272;28;20451;-66
2022/11/11 03:15:49;;;;;;;15.27;9.00;;;;;;;7.75;76.85;102188.69;4147570;28;20068;-65
2022/11/11 03:18:10;;;;;;;13.27;8.35;;;;;;;7.73;76.52;102179.94;4147299;28;20044;-65
2022/11/11 03:23:13;;;;;;;14.77;8.73;;;;;;;7.65;76.90;102190.78;4148334;28;20586;-66
2022/11/11 03:25:37;;;;;;;14.48;9.48;;;;;;;7.62;76.83;102198.38;4148319;28;20049;-65
2022/11/11 03:27:59;;;;;;;15.60;9.27;;;;;;;7.63;77.13;102207.91;4144995;28;20065;-65
2022/11/11 03:30:20;;;;;;;15.18;10.40;;;;;;;7.64;76.59;102212.28;4146930;28;20070;-65
2022/11/11 03:32:43;;;;;;;20.05;10.57;;;;;;;7.65;77.34;102216.66;4148189;28;20076;-65
2022/11/11 03:35:05;;;;;;;20.17;9.90;;;;;;;7.64;77.59;102217.47;4147215;28;20038;-65
2022/11/11 03:40:07;;;;;;;17.90;10.10;;;;;;;7.63;77.52;102225.16;4131914;28;20061;-65
2022/11/11 03:42:28;;;;;;;12.35;8.55;;;;;;;7.56;77.55;102221.31;4130581;28;20046;-65
2022/11/11 03:44:50;;;;;;;15.98;9.88;;;;;;;7.56;77.71;102223.91;4131586;28;20500;-65
2022/11/11 03:47:11;;;;;;;17.52;10.65;;;;;;;7.56;78.08;102231.66;4141621;28;20034;-65
2022/11/11 03:49:34;;;;;;;12.85;9.32;;;;;;;7.54;78.09;102230.72;4144874;28;20069;-65
2022/11/11 03:51:56;;;;;;;14.35;9.60;;;;;;;7.57;78.35;102230.88;4143203;28;20041;-65
2022/11/11 03:54:17;;;;;;;16.30;9.75;;;;;;;7.59;78.03;102221.47;4147447;28;20045;-65
2022/11/11 03:56:39;;;;;;;17.58;10.18;;;;;;;7.60;78.10;102225.84;4145534;28;20034;-65
2022/11/11 03:59:00;;;;;;;15.10;10.90;;;;;;;7.60;77.73;102228.44;4146715;28;20050;-65
2022/11/11 04:11:56;;;;;;;16.70;10.13;;;;;;;7.46;78.06;102239.72;4147924;28;20041;-65
2022/11/11 04:16:57;;;;;;;16.83;10.55;;;;;;;7.42;77.99;102248.16;4145052;28;20088;-65
2022/11/11 04:21:59;;;;;;;43.88;11.70;;;;;;;7.37;78.63;102262.53;4147728;28;20518;-65
2022/11/11 04:27:02;;;;;;;14.00;9.43;;;;;;;7.37;78.35;102273.75;4139906;28;20042;-65
2022/11/11 04:29:29;;;;;;;13.23;10.07;;;;;;;7.39;78.76;102273.84;4147539;28;20091;-65
2022/11/11 04:34:26;;;;;;;15.97;10.57;;;;;;;7.25;78.71;102278.25;4149754;28;20045;-65
2022/11/11 04:36:47;;;;;;;12.85;9.05;;;;;;;7.22;78.54;102278.06;4150210;28;20110;-65
2022/11/11 04:41:49;;;;;;;13.45;8.82;;;;;;;7.14;78.67;102275.94;4150112;28;20466;-65
2022/11/11 04:47:09;;;;;;;13.30;8.23;;;;;;;7.09;78.49;102271.28;4149892;28;20045;-67
2022/11/11 04:49:31;;;;;;;12.90;9.30;;;;;;;6.99;78.82;102267.28;4144329;28;20523;-66
2022/11/11 04:56:46;;;;;;;12.75;8.38;;;;;;;6.94;78.46;102268.72;4144727;28;20060;-65
2022/11/11 04:57:13;;;;;;;12.98;7.65;;;;;;;6.94;78.62;102276.47;4145461;28;20092;-65
2022/11/11 04:59:35;;;;;;;16.58;8.43;;;;;;;6.96;78.94;102270.56;4150319;28;20061;-66
2022/11/11 05:04:35;;;;;;;13.50;9.15;;;;;;;7.12;78.26;102263.72;4146885;28;20046;-65
2022/11/11 05:09:37;;;;;;;11.65;7.90;;;;;;;7.10;78.00;102270.50;4147017;28;20034;-66
2022/11/11 05:11:59;;;;;;;11.43;7.68;;;;;;;7.06;78.08;102265.94;4143621;28;20120;-65
2022/11/11 05:22:24;;;;;;;12.60;7.85;;;;;;;6.97;78.04;102262.00;4149493;28;20041;-66
2022/11/11 05:27:26;;;;;;;14.25;8.10;;;;;;;6.90;78.07;102262.47;4160747;28;20536;-66
2022/11/11 05:29:48;;;;;;;14.05;7.82;;;;;;;6.92;78.17;102268.63;4150030;28;20042;-66
2022/11/11 05:32:09;;;;;;;17.15;9.00;;;;;;;6.96;77.30;102275.72;4145102;28;20054;-66
2022/11/11 05:34:31;;;;;;;13.45;8.68;;;;;;;6.95;77.29;102278.22;4145440;28;20026;-66
2022/11/11 05:36:52;;;;;;;10.93;7.00;;;;;;;6.92;76.96;102280.66;4142469;28;20506;-66
2022/11/11 05:39:14;;;;;;;14.32;8.07;;;;;;;6.90;77.39;102280.56;4144651;28;20033;-66
2022/11/11 05:41:37;;;;;;;13.60;8.13;;;;;;;6.91;77.60;102284.06;4146355;28;20416;-66
2022/11/11 05:43:58;;;;;;;11.10;7.93;;;;;;;6.92;77.46;102278.97;4142128;28;20133;-66
2022/11/11 05:46:20;;;;;;;17.05;10.32;;;;;;;6.90;77.14;102280.56;4149832;28;20045;-66
2022/11/11 05:49:13;;;;;;;14.13;8.65;;;;;;;6.87;77.05;102288.13;4149875;28;20596;-66
2022/11/11 05:51:27;;;;;;;14.38;9.00;;;;;;;6.90;77.62;102287.44;4146144;28;20050;-66
2022/11/11 05:53:49;;;;;;;12.15;8.20;;;;;;;6.91;76.78;102295.28;4131815;28;20088;-66
2022/11/11 05:56:10;;;;;;;15.77;9.15;;;;;;;6.88;76.54;102301.94;4148501;28;20108;-66
2022/11/11 05:58:32;;;;;;;14.73;8.65;;;;;;;6.86;77.19;102299.28;4141126;28;20045;-66
2022/11/11 06:00:54;;;;;;;21.40;9.98;;;;;;;6.92;77.24;102303.91;4142397;28;20044;-66
2022/11/11 06:03:15;;;;;;;16.35;9.95;;;;;;;6.97;77.04;102300.81;4149345;28;20126;-66
2022/11/11 06:05:37;;;;;;;21.10;12.82;;;;;;;6.99;77.46;102304.38;4149542;28;20135;-66
2022/11/11 06:07:59;;;;;;;23.33;12.30;;;;;;;7.01;77.91;102298.38;4148388;28;20054;-66
2022/11/11 06:10:32;;;;;;;24.48;12.23;;;;;;;7.00;78.12;102302.69;4145786;28;20563;-66
2022/11/11 06:13:04;;;;;;;28.17;14.13;;;;;;;7.03;78.20;102304.56;4142471;28;20042;-66
2022/11/11 06:15:27;;;;;;;26.38;12.55;;;;;;;7.09;78.12;102304.91;4149179;28;20045;-66
2022/11/11 06:17:48;;;;;;;35.00;13.65;;;;;;;7.13;78.61;102309.47;4149382;28;20040;-66
2022/11/11 06:20:10;;;;;;;35.72;13.88;;;;;;;7.14;78.58;102314.72;4147671;28;20113;-66
2022/11/11 06:27:48;;;;;;;37.17;16.17;;;;;;;7.24;79.44;102338.53;4147636;28;20398;-66
2022/11/11 06:30:11;;;;;;;28.70;15.85;;;;;;;7.25;79.70;102338.63;4149161;28;20049;-66
2022/11/11 06:32:54;;;;;;;27.23;13.90;;;;;;;7.26;79.93;102337.81;4148995;28;20046;-65
2022/11/11 06:35:16;;;;;;;25.10;13.95;;;;;;;7.28;79.47;102341.38;4146779;28;20065;-66
2022/11/11 06:37:37;;;;;;;44.88;15.43;;;;;;;7.30;80.04;102344.06;4147897;28;20129;-65
2022/11/11 06:39:58;;;;;;;32.55;13.10;;;;;;;7.23;79.73;102352.25;4141317;28;20046;-65
2022/11/11 06:42:20;;;;;;;20.13;11.80;;;;;;;7.25;80.16;102342.91;4148849;28;20038;-65
2022/11/11 06:44:41;;;;;;;19.20;11.95;;;;;;;7.32;79.85;102342.47;4146738;28;20096;-66
2022/11/11 06:47:02;;;;;;;18.45;11.07;;;;;;;7.36;79.94;102347.03;4142577;28;20050;-66
2022/11/11 06:49:25;;;;;;;24.05;13.52;;;;;;;7.36;79.63;102346.09;4147564;28;20099;-65
2022/11/11 06:51:48;;;;;;;27.80;12.43;;;;;;;7.45;79.93;102349.25;4148859;28;20042;-65
2022/11/11 06:54:10;;;;;;;17.48;10.57;;;;;;;7.40;79.55;102350.66;4147398;28;20041;-65
2022/11/11 06:56:31;;;;;;;17.33;10.35;;;;;;;7.39;79.78;102356.63;4152371;28;20131;-65
2022/11/11 06:58:53;;;;;;;13.57;8.77;;;;;;;7.46;79.42;102351.91;4148577;28;20514;-66
2022/11/11 07:01:14;;;;;;;14.27;7.32;;;;;;;7.45;79.55;102360.47;4147574;28;20034;-65
2022/11/11 07:03:36;;;;;;;10.65;7.75;;;;;;;7.38;79.82;102367.81;4148231;28;20522;-66
2022/11/11 07:06:00;;;;;;;10.55;7.38;;;;;;;7.37;79.57;102366.91;4146861;28;20037;-66
2022/11/11 07:08:22;;;;;;;30.48;9.35;;;;;;;7.31;79.95;102376.88;4144920;28;20096;-65
2022/11/11 07:10:46;;;;;;;25.52;9.40;;;;;;;7.26;79.69;102375.75;4148450;28;20069;-66
2022/11/11 07:13:08;;;;;;;13.40;8.65;;;;;;;7.28;80.05;102384.47;4147256;28;20045;-66
2022/11/11 07:15:29;;;;;;;15.15;7.68;;;;;;;7.26;80.21;102384.38;4147508;28;20030;-66
2022/11/11 07:17:51;;;;;;;24.38;7.95;;;;;;;7.23;80.55;102384.22;4132352;28;20042;-66
2022/11/11 07:20:13;;;;;;;11.40;6.85;;;;;;;7.31;80.20;102387.25;4147358;28;20045;-66
2022/11/11 07:22:37;;;;;;;12.15;7.45;;;;;;;7.43;80.35;102387.06;4132338;28;20039;-66
2022/11/11 07:24:58;;;;;;;13.25;6.40;;;;;;;7.47;79.86;102381.25;4145166;28;20128;-66
2022/11/11 07:27:19;;;;;;;10.40;6.47;;;;;;;7.48;80.05;102376.19;4148142;28;20122;-66
2022/11/11 07:29:41;;;;;;;30.42;7.72;;;;;;;7.47;79.72;102379.56;4148340;28;20057;-66
2022/11/11 07:32:02;;;;;;;10.95;7.07;;;;;;;7.44;79.79;102378.50;4147024;28;20050;-66
2022/11/11 07:34:24;;;;;;;12.48;7.85;;;;;;;7.41;79.30;102386.09;4146863;28;20033;-66
2022/11/11 07:36:45;;;;;;;10.70;7.95;;;;;;;7.47;79.54;102384.72;4148100;28;20073;-66
2022/11/11 07:39:08;;;;;;;9.90;7.05;;;;;;;7.42;79.60;102388.78;4131920;28;20073;-66
2022/11/11 07:41:30;;;;;;;10.73;6.90;;;;;;;7.44;79.91;102386.28;4131923;28;20416;-66
2022/11/11 07:43:51;;;;;;;9.20;6.30;;;;;;;7.44;79.71;102388.84;4131476;28;20042;-66
2022/11/11 07:46:13;;;;;;;20.73;7.72;;;;;;;7.61;79.97;102379.50;4143246;28;20038;-66
2022/11/11 07:48:35;;;;;;;11.55;8.02;;;;;;;7.64;79.80;102387.44;4148102;28;20092;-66
2022/11/11 07:50:56;;;;;;;20.05;8.35;;;;;;;7.70;79.11;102387.78;4147959;28;20128;-66
2022/11/11 07:53:17;;;;;;;10.15;6.93;;;;;;;7.65;79.29;102384.00;4147740;28;20056;-66
2022/11/11 07:55:40;;;;;;;13.30;7.65;;;;;;;7.66;79.77;102380.63;4145786;28;20038;-66
2022/11/11 07:58:02;;;;;;;11.80;6.20;;;;;;;7.65;79.85;102387.50;4141481;28;20053;-66
2022/11/11 08:00:23;;;;;;;10.70;6.65;;;;;;;7.65;80.20;102386.59;4145485;28;20076;-66
2022/11/11 08:02:47;;;;;;;15.43;7.10;;;;;;;7.56;80.58;102394.72;4162308;28;20045;-66
2022/11/11 08:05:10;;;;;;;15.52;9.32;;;;;;;7.55;80.53;102387.78;4131441;28;20050;-66
2022/11/11 08:07:34;;;;;;;17.83;8.40;;;;;;;7.69;80.20;102396.31;4131464;28;20483;-66
2022/11/11 08:09:55;;;;;;;22.10;8.80;;;;;;;7.76;79.84;102387.22;4130303;28;20038;-66
2022/11/11 08:14:57;;;;;;;19.83;8.50;;;;;;;7.93;78.90;102381.31;4131278;28;20072;-66
2022/11/11 08:17:25;;;;;;;11.13;7.15;;;;;;;7.86;79.00;102384.34;4131500;28;20049;-66
2022/11/11 08:19:47;;;;;;;12.02;7.68;;;;;;;8.02;78.75;102381.81;4130401;28;20536;-66
2022/11/11 08:22:08;;;;;;;16.35;6.93;;;;;;;7.80;79.11;102381.44;4143572;28;20057;-66
2022/11/11 08:24:29;;;;;;;26.52;7.65;;;;;;;7.77;79.71;102382.13;4146618;28;20034;-66
2022/11/11 08:27:10;;;;;;;15.25;6.50;;;;;;;7.57;79.82;102375.81;4131413;28;20050;-66
2022/11/11 08:29:33;;;;;;;14.40;6.75;;;;;;;7.68;80.02;102373.81;4131407;28;20043;-66
2022/11/11 08:31:56;;;;;;;14.10;7.90;;;;;;;7.71;80.05;102383.47;4139610;28;20443;-66
2022/11/11 08:34:18;;;;;;;11.85;6.70;;;;;;;7.69;79.98;102373.94;4147024;28;20524;-66
2022/11/11 08:36:39;;;;;;;12.63;7.15;;;;;;;7.82;79.88;102372.91;4147729;28;20609;-66
2022/11/11 08:39:00;;;;;;;16.95;7.85;;;;;;;7.76;80.14;102366.53;4147556;28;20125;-65
2022/11/11 08:41:22;;;;;;;13.05;7.65;;;;;;;7.80;80.43;102352.94;4146573;28;20042;-66
2022/11/11 08:43:44;;;;;;;15.18;8.18;;;;;;;7.88;80.19;102364.59;4148695;28;20117;-66
2022/11/11 08:46:07;;;;;;;18.58;8.50;;;;;;;8.10;78.75;102370.97;4140913;28;20092;-66
2022/11/11 08:48:29;;;;;;;18.35;9.45;;;;;;;8.03;78.97;102368.06;4147590;28;20049;-66
2022/11/11 08:50:52;;;;;;;23.10;10.70;;;;;;;8.17;78.61;102368.81;4145696;28;20042;-65
2022/11/11 08:53:14;;;;;;;16.33;9.70;;;;;;;8.01;79.19;102371.38;4147270;28;20042;-66
2022/11/11 08:55:36;;;;;;;12.32;6.78;;;;;;;7.93;79.58;102368.34;4147374;28;20053;-66
2022/11/11 08:57:59;;;;;;;15.32;8.70;;;;;;;8.01;79.47;102385.19;4147518;28;20428;-66
2022/11/11 09:00:20;;;;;;;18.25;10.27;;;;;;;8.25;78.60;102389.06;4145264;28;20042;-66
2022/11/11 09:02:42;;;;;;;20.60;10.55;;;;;;;8.26;78.27;102391.72;4147318;28;20129;-66
2022/11/11 09:05:05;;;;;;;20.30;10.40;;;;;;;8.01;78.62;102384.31;4129641;28;20073;-66
2022/11/11 09:07:31;;;;;;;19.13;10.68;;;;;;;8.07;79.14;102388.94;4131177;28;20058;-66
2022/11/11 09:09:53;;;;;;;27.10;11.93;;;;;;;8.02;79.23;102394.75;4141902;28;20066;-66
2022/11/11 09:12:14;;;;;;;15.45;9.70;;;;;;;8.13;78.60;102399.63;4144650;28;20100;-66
2022/11/11 09:14:36;;;;;;;28.23;12.30;;;;;;;8.06;78.55;102397.50;4145583;28;20073;-66
2022/11/11 09:16:57;;;;;;;19.00;11.25;;;;;;;8.04;78.93;102394.84;4145996;28;20042;-66
2022/11/11 09:19:20;;;;;;;17.17;9.95;;;;;;;8.10;79.04;102400.34;4147310;28;20060;-66
2022/11/11 09:21:41;;;;;;;22.02;11.88;;;;;;;8.10;79.27;102407.25;4150144;28;20050;-66
2022/11/11 09:24:03;;;;;;;19.25;9.15;;;;;;;8.11;79.18;102401.28;4150075;28;20046;-66
2022/11/11 09:26:24;;;;;;;22.48;12.25;;;;;;;8.07;79.28;102401.91;4148769;28;20061;-66
2022/11/11 09:28:46;;;;;;;16.10;10.38;;;;;;;8.08;79.79;102406.28;4149698;28;20420;-66
2022/11/11 09:31:07;;;;;;;18.75;10.57;;;;;;;8.02;80.00;102409.41;4144453;28;20045;-66
2022/11/11 09:33:49;;;;;;;23.88;11.18;;;;;;;8.03;80.31;102409.50;4149719;28;20542;-66
2022/11/11 09:36:11;;;;;;;17.55;10.02;;;;;;;8.06;80.20;102413.06;4150096;28;20038;-66
2022/11/11 09:38:33;;;;;;;26.83;12.85;;;;;;;8.10;80.11;102415.91;4149365;28;20571;-66
2022/11/11 09:41:08;;;;;;;16.35;10.60;;;;;;;8.11;80.00;102427.19;4148538;28;20116;-66
2022/11/11 09:43:42;;;;;;;45.03;12.65;;;;;;;7.93;80.79;102427.91;4148453;28;20092;-66
2022/11/11 09:46:16;;;;;;;15.98;10.38;;;;;;;7.96;80.73;102427.22;4149899;28;20038;-66
2022/11/11 09:48:51;;;;;;;41.13;15.27;;;;;;;8.18;80.70;102424.13;4149453;28;20045;-66
2022/11/11 09:51:21;;;;;;;74.68;14.70;;;;;;;8.33;79.63;102417.19;4144858;28;20041;-66
2022/11/11 09:53:47;;;;;;;81.88;15.65;;;;;;;8.41;79.06;102420.22;4148156;28;20052;-66
2022/11/11 09:56:12;;;;;;;71.63;15.48;;;;;;;8.30;79.50;102426.50;4149592;28;20066;-65
2022/11/11 09:58:53;;;;;;;17.88;10.68;;;;;;;8.26;80.40;102422.81;4146608;28;20103;-65
2022/11/11 10:01:20;;;;;;;16.67;10.38;;;;;;;8.22;80.63;102410.53;4144898;28;20042;-65
2022/11/11 10:03:47;;;;;;;28.25;13.73;;;;;;;8.33;80.64;102417.19;4147910;28;20046;-65
2022/11/11 10:06:13;;;;;;;19.30;11.18;;;;;;;8.38;80.67;102415.75;4149624;28;20034;-65
2022/11/11 10:08:49;;;;;;;23.80;13.15;;;;;;;8.38;80.51;102415.75;4148456;28;20045;-66
2022/11/11 10:11:16;;;;;;;34.88;14.10;;;;;;;8.47;80.14;102417.06;4142213;28;20129;-66
2022/11/11 10:13:38;;;;;;;21.33;13.88;;;;;;;8.67;79.05;102415.56;4147553;28;20042;-66
2022/11/11 10:16:06;;;;;;;57.13;13.57;;;;;;;8.38;80.08;102407.06;4148259;28;20050;-66
2022/11/11 10:18:43;;;;;;;30.48;14.15;;;;;;;8.34;80.14;102403.41;4149249;28;20551;-66
2022/11/11 10:21:14;;;;;;;17.63;11.32;;;;;;;8.31;80.24;102398.06;4147229;28;20132;-66
2022/11/11 10:23:37;;;;;;;16.70;10.40;;;;;;;8.46;80.14;102402.34;4148777;28;20452;-66
2022/11/11 10:26:05;;;;;;;38.67;13.98;;;;;;;8.51;80.33;102393.09;4149283;28;20071;-66
2022/11/11 10:28:32;;;;;;;18.08;10.50;;;;;;;8.53;80.39;102388.91;4149166;28;20034;-66
2022/11/11 10:30:55;;;;;;;20.67;12.63;;;;;;;8.55;80.65;102385.56;4145324;28;20396;-66
2022/11/11 10:33:20;;;;;;;41.95;13.57;;;;;;;8.54;80.53;102382.91;4148657;28;20121;-66
2022/11/11 10:35:42;;;;;;;35.83;13.45;;;;;;;8.49;80.41;102381.78;4149225;28;20038;-66
2022/11/11 10:38:23;;;;;;;22.92;13.60;;;;;;;8.65;79.84;102381.78;4147458;28;20128;-66
2022/11/11 10:40:50;;;;;;;16.17;10.95;;;;;;;8.53;80.44;102389.78;4147992;28;20101;-66
2022/11/11 10:43:21;;;;;;;26.67;14.52;;;;;;;8.67;80.33;102379.25;4146464;28;20455;-66
2022/11/11 10:45:49;;;;;;;19.15;12.75;;;;;;;8.63;80.35;102375.63;4149071;28;20064;-65
2022/11/11 10:48:14;;;;;;;20.65;13.07;;;;;;;8.57;80.74;102377.88;4148104;28;20048;-66
2022/11/11 10:50:39;;;;;;;24.83;13.77;;;;;;;8.60;80.93;102378.06;4146986;28;20042;-66
2022/11/11 10:53:08;;;;;;;40.63;14.73;;;;;;;8.63;80.75;102365.25;4132568;28;20038;-66
2022/11/11 10:55:35;;;;;;;26.05;14.65;;;;;;;8.56;80.82;102369.22;4131316;28;20141;-66
2022/11/11 10:58:01;;;;;;;19.35;13.27;;;;;;;8.70;80.12;102374.22;4132744;28;20057;-66
2022/11/11 11:00:24;;;;;;;16.83;10.93;;;;;;;8.83;79.55;102370.59;4144056;28;20101;-65
2022/11/11 11:02:56;;;;;;;16.98;11.32;;;;;;;8.73;79.93;102353.66;4148576;28;20069;-66
2022/11/11 11:05:25;;;;;;;67.38;16.55;;;;;;;8.71;79.99;102353.56;4148413;28;20120;-65
2022/11/11 11:07:53;;;;;;;33.30;15.32;;;;;;;8.79;80.09;102341.03;4148980;28;20125;-66
2022/11/11 11:10:18;;;;;;;15.00;10.57;;;;;;;8.76;79.72;102348.66;4143764;28;20096;-65
2022/11/11 11:12:46;;;;;;;19.17;13.90;;;;;;;8.79;80.27;102356.59;4148635;28;20061;-66
2022/11/11 11:15:13;;;;;;;15.98;11.85;;;;;;;8.78;80.26;102351.31;4147746;28;20052;-66
2022/11/11 11:17:40;;;;;;;19.70;12.30;;;;;;;8.75;79.89;102357.22;4147146;28;20046;-66
2022/11/11 11:20:13;;;;;;;17.90;11.80;;;;;;;8.74;79.85;102355.44;4147974;28;20408;-66
2022/11/11 11:22:49;;;;;;;45.30;15.45;;;;;;;8.82;79.51;102342.84;4147277;28;20125;-66
2022/11/11 11:25:11;;;;;;;;;;;;;;;8.58;80.24;102348.56;4142930;28;20137;-66
2022/11/11 11:27:33;;;;;;;63.42;15.05;;;;;;;8.46;80.92;102347.91;4148375;28;20383;-66
2022/11/11 11:30:09;;;;;;;98.32;15.98;;;;;;;8.54;80.47;102347.50;4148293;28;20423;-66
2022/11/11 11:32:41;;;;;;;32.13;16.20;;;;;;;8.65;80.30;102349.78;4146524;28;20050;-66
2022/11/11 11:35:03;;;;;;;21.52;14.55;;;;;;;8.68;80.17;102353.41;4146612;28;20041;-66
2022/11/11 11:37:26;;;;;;;21.33;13.27;;;;;;;8.73;80.37;102353.66;4143307;28;20038;-66
2022/11/11 11:39:48;;;;;;;18.30;13.23;;;;;;;8.74;80.57;102361.50;4148098;28;20049;-66
2022/11/11 11:42:27;;;;;;;17.63;11.45;;;;;;;8.80;80.41;102354.88;4147689;28;20053;-66
2022/11/11 11:44:49;;;;;;;16.77;11.88;;;;;;;8.77;80.74;102350.41;4147331;28;20066;-65
2022/11/11 11:47:25;;;;;;;21.05;13.55;;;;;;;8.82;80.84;102348.97;4142808;28;20710;-66
2022/11/11 11:50:10;;;;;;;19.65;15.00;;;;;;;8.96;80.57;102351.38;4147950;28;20550;-66
2022/11/11 11:52:44;;;;;;;15.25;11.38;;;;;;;8.97;80.20;102341.06;4145297;28;20069;-66
2022/11/11 11:55:11;;;;;;;15.63;12.00;;;;;;;8.95;79.88;102345.31;4130015;28;20049;-66
2022/11/11 11:57:44;;;;;;;31.58;14.45;;;;;;;8.96;79.87;102341.88;4131520;28;20552;-65
2022/11/11 12:00:15;;;;;;;18.35;13.05;;;;;;;8.88;79.88;102343.19;4131702;28;20066;-66
2022/11/11 12:02:59;;;;;;;29.10;12.77;;;;;;;8.92;80.01;102342.53;4146126;28;20121;-66
2022/11/11 12:05:26;;;;;;;35.78;14.93;;;;;;;9.09;79.16;102343.38;4131608;28;20049;-66
2022/11/11 12:08:03;;;;;;;23.27;13.38;;;;;;;8.85;79.98;102330.97;4135760;28;20125;-66
2022/11/11 12:10:35;;;;;;;15.85;11.02;;;;;;;8.81;80.40;102328.13;4144342;28;20052;-65
2022/11/11 12:13:16;;;;;;;18.75;13.20;;;;;;;9.04;79.64;102335.38;4146742;28;20045;-66
2022/11/11 12:15:40;;;;;;;19.20;14.63;;;;;;;9.04;80.04;102344.88;4146163;28;20033;-66
2022/11/11 12:18:19;;;;;;;82.45;16.98;;;;;;;9.12;79.36;102348.72;4131527;28;20081;-66
2022/11/11 12:20:50;;;;;;;21.83;13.38;;;;;;;8.98;79.69;102339.34;4132522;28;21408;-66
2022/11/11 12:23:34;;;;;;;20.23;14.52;;;;;;;9.07;79.71;102350.22;4142165;28;20100;-66
2022/11/11 12:26:03;;;;;;;49.25;16.70;;;;;;;9.13;79.97;102349.66;4147724;28;20038;-66
2022/11/11 12:28:39;;;;;;;34.03;17.52;;;;;;;9.22;79.27;102350.09;4147676;28;20037;-66
2022/11/11 12:31:10;;;;;;;43.40;19.80;;;;;;;9.30;79.31;102358.25;4139783;28;20069;-65
2022/11/11 12:34:02;;;;;;;31.58;17.08;;;;;;;9.25;79.45;102361.50;4145603;28;20073;-66